Shtandart — UAEM — position and weather

sailwx.info

Track history (hours):
 
Tides and Currents Weather Stations Pressure Air Temp Water Temp Dewpoint Dewpoint Depression Visibility Wind Speed Wind Dir Waves Ship Positions

Shtandart

Re-creation of early 1700's Russian naval frigate.

Last reported at 2017-May-29 10:59 UTC. Time now 2017-May-29 11:26 UTC.
Position N 48°23' W 004°29'.

Length 34 m; draft 3 m.

Type: Sailing vessel. MMSI: 273452840.

Date/timePositionNaut miles runAvg speedWind from/ knotsBaromVisibWave heightAir tempDewpointWater temp
2017-May-29 10:59N 48°23' W 004°29'0 0.0
2017-May-29 10:29N 48°23' W 004°29'0 0.0
2017-May-29 09:59N 48°23' W 004°29'0 0.0
2017-May-29 09:29N 48°23' W 004°29'0 0.0
2017-May-29 08:59N 48°23' W 004°29'0 0.0
2017-May-29 08:29N 48°23' W 004°29'0 0.0
2017-May-29 07:59N 48°23' W 004°29'0 0.0
2017-May-29 07:29N 48°23' W 004°29'0 0.0
2017-May-29 07:00N 48°23' W 004°29'0 0.0
2017-May-29 06:29N 48°23' W 004°29'0 0.0
2017-May-29 05:59N 48°23' W 004°29'0 0.0
2017-May-29 05:29N 48°23' W 004°29'0 0.0
2017-May-29 04:59N 48°23' W 004°29'0 0.0
2017-May-29 04:29N 48°23' W 004°29'0 0.0
2017-May-29 03:59N 48°23' W 004°29'0 0.0
2017-May-29 03:29N 48°23' W 004°29'0 0.0
2017-May-29 02:59N 48°23' W 004°29'0 0.0
2017-May-29 02:29N 48°23' W 004°29'0 0.0
2017-May-29 01:59N 48°23' W 004°29'0 0.0
2017-May-29 01:29N 48°23' W 004°29'0 0.0
2017-May-29 00:59N 48°23' W 004°29'0 0.0
2017-May-29 00:29N 48°23' W 004°29'0 0.0
2017-May-28 23:59N 48°23' W 004°29'0 0.0
2017-May-28 23:29N 48°23' W 004°29'0 0.0
2017-May-28 22:59N 48°23' W 004°29'0 0.0
2017-May-28 22:29N 48°23' W 004°29'0 0.0
2017-May-28 21:59N 48°23' W 004°29'0 0.0
2017-May-28 21:29N 48°23' W 004°29'0 0.0
2017-May-28 20:59N 48°23' W 004°29'0 0.0
2017-May-28 20:29N 48°23' W 004°29'0 0.0
2017-May-28 19:59N 48°23' W 004°29'0 0.0
2017-May-28 19:29N 48°23' W 004°29'1 2.0
2017-May-28 19:00N 48°22' W 004°30'3 5.1
2017-May-28 18:30N 48°21' W 004°34'3 5.7
2017-May-28 18:00N 48°19' W 004°37'3 6.4
2017-May-28 17:30N 48°16' W 004°39'3 6.3
2017-May-28 17:00N 48°14' W 004°42'3 6.3
2017-May-28 16:30N 48°11' W 004°45'3 6.6
2017-May-28 16:00N 48°08' W 004°47'3 6.4
2017-May-28 15:31N 48°05' W 004°49'4 8.3
2017-May-28 15:00N 48°02' W 004°46'6 5.6
2017-May-28 14:00N 47°57' W 004°42'2 3.3
2017-May-28 13:30N 47°55' W 004°41'2 3.6
2017-May-28 13:00N 47°54' W 004°40'2 3.0
2017-May-28 12:30N 47°53' W 004°38'1 3.0
2017-May-28 12:00N 47°51' W 004°37'1 2.5
2017-May-28 11:30N 47°50' W 004°36'1 2.1
2017-May-28 11:01N 47°50' W 004°35'10 5.1
2017-May-28 08:58N 47°43' W 004°23'2 1.8
2017-May-28 08:05N 47°43' W 004°21'0 3.3
2017-May-28 07:58N 47°42' W 004°20'2 3.3
2017-May-28 07:30N 47°42' W 004°18'2 4.1
2017-May-28 06:58N 47°42' W 004°15'2 3.6
2017-May-28 06:23N 47°41' W 004°12'1 1.5
2017-May-28 05:58N 47°41' W 004°11'2 3.8
2017-May-28 05:28N 47°40' W 004°08'1 3.2
2017-May-28 05:00N 47°39' W 004°06'3 5.3
2017-May-28 04:30N 47°38' W 004°03'3 5.2
2017-May-28 03:54N 47°37' W 003°58'2 6.0
2017-May-28 03:30N 47°36' W 003°55'3 6.7
2017-May-28 03:00N 47°35' W 003°51'3 6.4
2017-May-28 02:30N 47°33' W 003°46'3 6.5
2017-May-28 02:00N 47°32' W 003°42'3 6.4
2017-May-28 01:30N 47°30' W 003°38'3 7.0
2017-May-28 01:00N 47°29' W 003°33'3 6.9
2017-May-28 00:30N 47°28' W 003°28'3 6.1
2017-May-28 00:00N 47°26' W 003°24'2 4.7
2017-May-27 23:30N 47°25' W 003°21'2 4.0
2017-May-27 23:00N 47°25' W 003°19'2 4.8
2017-May-27 22:30N 47°24' W 003°15'4 7.1
2017-May-27 22:00N 47°23' W 003°10'4 7.6
2017-May-27 21:30N 47°25' W 003°05'4 8.0
2017-May-27 21:00N 47°28' W 003°01'3 6.9
2017-May-27 20:30N 47°30' W 002°57'4 7.4
2017-May-27 20:00N 47°34' W 002°55'4 7.6
2017-May-27 19:30N 47°36' W 002°51'0 0.2
2017-May-27 18:59N 47°36' W 002°51'0 0.0
2017-May-27 18:30N 47°36' W 002°51'0 0.0
2017-May-27 17:59N 47°36' W 002°51'0 0.0
2017-May-27 17:29N 47°36' W 002°51'0 0.0
2017-May-27 16:59N 47°36' W 002°51'0 0.0
2017-May-27 16:29N 47°36' W 002°51'0 0.0
2017-May-27 15:59N 47°36' W 002°51'0 0.0
2017-May-27 15:29N 47°36' W 002°51'0 0.0
2017-May-27 14:59N 47°36' W 002°51'1 2.8
2017-May-27 14:30N 47°35' W 002°52'4 4.2
2017-May-27 13:31N 47°31' W 002°55'2 3.1
2017-May-27 13:00N 47°30' W 002°54'1 2.5
2017-May-27 12:29N 47°29' W 002°53'0 0.9
2017-May-27 11:59N 47°28' W 002°53'1 1.7
2017-May-27 11:29N 47°29' W 002°55'1 1.6
2017-May-27 10:59N 47°29' W 002°56'2 4.3
2017-May-27 10:30N 47°31' W 002°55'4 7.7
2017-May-27 10:00N 47°35' W 002°53'2 4.5
2017-May-27 09:30N 47°36' W 002°51'0 0.0
2017-May-27 09:00N 47°36' W 002°51'0 0.0
2017-May-27 08:29N 47°36' W 002°51'0 0.0
2017-May-27 07:59N 47°36' W 002°51'0 0.0
2017-May-27 07:29N 47°36' W 002°51'0 0.0
2017-May-27 06:59N 47°36' W 002°51'0 0.1
2017-May-27 06:29N 47°36' W 002°51'0 0.0
2017-May-27 05:59N 47°36' W 002°51'0 0.0
2017-May-27 05:29N 47°36' W 002°51'0 0.0
2017-May-27 04:59N 47°36' W 002°51'0 0.0
2017-May-27 04:29N 47°36' W 002°51'0 0.0
2017-May-27 03:59N 47°36' W 002°51'0 0.0
2017-May-27 03:29N 47°36' W 002°51'0 0.0
2017-May-27 02:59N 47°36' W 002°51'0 0.0
2017-May-27 02:29N 47°36' W 002°51'0 0.0
2017-May-27 01:59N 47°36' W 002°51'0 0.0
2017-May-27 01:30N 47°36' W 002°51'0 0.0
2017-May-27 00:59N 47°36' W 002°51'0 0.0
2017-May-27 00:30N 47°36' W 002°51'0 0.0
2017-May-27 00:00N 47°36' W 002°51'0 0.0
2017-May-26 23:30N 47°36' W 002°51'0 0.0
2017-May-26 23:00N 47°36' W 002°51'0 0.0
2017-May-26 22:30N 47°36' W 002°51'0 0.0
2017-May-26 21:59N 47°36' W 002°51'0 0.0
2017-May-26 21:30N 47°36' W 002°51'0 0.0
2017-May-26 20:59N 47°36' W 002°51'0 0.0
2017-May-26 20:30N 47°36' W 002°51'0 0.0
2017-May-26 19:59N 47°36' W 002°51'0 0.0
2017-May-26 19:30N 47°36' W 002°51'0 0.0
2017-May-26 18:59N 47°36' W 002°51'0 0.0
2017-May-26 18:29N 47°36' W 002°51'0 0.0
2017-May-26 17:59N 47°36' W 002°51'0 0.0
2017-May-26 17:29N 47°36' W 002°51'0 0.0
2017-May-26 16:59N 47°36' W 002°51'0 0.0
2017-May-26 16:26N 47°36' W 002°51'0 0.0
2017-May-26 15:59N 47°36' W 002°51'0 0.0
2017-May-26 15:29N 47°36' W 002°51'0 0.0
2017-May-26 15:00N 47°36' W 002°51'3 3.4
2017-May-26 14:00N 47°34' W 002°54'3 6.1
2017-May-26 13:30N 47°31' W 002°57'1 2.9
2017-May-26 13:00N 47°31' W 002°59'1 1.2
2017-May-26 12:28N 47°30' W 002°58'1 1.1
2017-May-26 11:58N 47°30' W 002°57'1 1.5
2017-May-26 11:28N 47°31' W 002°56'1 2.5
2017-May-26 10:58N 47°32' W 002°55'3 6.6
2017-May-26 10:31N 47°34' W 002°53'3 4.9
2017-May-26 09:59N 47°36' W 002°51'0 0.0
2017-May-26 09:29N 47°36' W 002°51'0 0.0
2017-May-26 08:59N 47°36' W 002°51'0 0.0
2017-May-26 08:29N 47°36' W 002°51'0 0.0
2017-May-26 07:59N 47°36' W 002°51'0 0.0
2017-May-26 07:29N 47°36' W 002°51'0 0.0
2017-May-26 06:59N 47°36' W 002°51'0 0.0
2017-May-26 06:29N 47°36' W 002°51'0 0.0
2017-May-26 05:59N 47°36' W 002°51'0 0.0
2017-May-26 05:29N 47°36' W 002°51'0 0.0
2017-May-26 04:59N 47°36' W 002°51'0 0.0
2017-May-26 04:29N 47°36' W 002°51'0 0.0
2017-May-26 03:59N 47°36' W 002°51'0 0.0
2017-May-26 03:29N 47°36' W 002°51'0 0.0
2017-May-26 02:59N 47°36' W 002°51'0 0.0
2017-May-26 02:29N 47°36' W 002°51'0 0.0
2017-May-26 01:59N 47°36' W 002°51'0 0.0
2017-May-26 01:30N 47°36' W 002°51'0 0.0
2017-May-26 01:00N 47°36' W 002°51'0 0.0
2017-May-26 00:30N 47°36' W 002°51'0 0.0
2017-May-25 23:59N 47°36' W 002°51'0 0.0
2017-May-25 23:29N 47°36' W 002°51'0 0.0
2017-May-25 23:00N 47°36' W 002°51'0 0.0
2017-May-25 22:30N 47°36' W 002°51'0 0.0
2017-May-25 21:59N 47°36' W 002°51'0 0.0
2017-May-25 21:30N 47°36' W 002°51'0 0.0
2017-May-25 21:00N 47°36' W 002°51'0 0.0
2017-May-25 20:30N 47°36' W 002°51'0 0.0
2017-May-25 19:59N 47°36' W 002°51'0 0.0
2017-May-25 19:29N 47°36' W 002°51'0 0.0
2017-May-25 18:59N 47°36' W 002°51'0 0.0
2017-May-25 18:29N 47°36' W 002°51'0 0.0
2017-May-25 17:59N 47°36' W 002°51'0 0.0
2017-May-25 17:29N 47°36' W 002°51'0 0.0
2017-May-25 16:59N 47°36' W 002°51'0 0.0
2017-May-25 16:29N 47°36' W 002°51'0 0.0
2017-May-25 15:59N 47°36' W 002°51'0 0.0
2017-May-25 15:29N 47°36' W 002°51'0 0.0
2017-May-25 14:59N 47°36' W 002°51'0 0.0
2017-May-25 13:59N 47°36' W 002°51'0 0.3
2017-May-25 13:30N 47°36' W 002°51'2 4.8
2017-May-25 13:00N 47°34' W 002°53'3 5.6
2017-May-25 12:30N 47°32' W 002°55'3 5.9
2017-May-25 12:00N 47°29' W 002°55'3 5.1
2017-May-25 11:30N 47°26' W 002°56'2 3.5
2017-May-25 11:00N 47°25' W 002°56'2 3.6
2017-May-25 10:30N 47°27' W 002°56'2 4.5
2017-May-25 10:00N 47°29' W 002°55'2 4.9
2017-May-25 09:30N 47°31' W 002°55'4 7.8
2017-May-25 09:00N 47°35' W 002°53'2 3.9
2017-May-25 08:30N 47°36' W 002°51'0 0.0
2017-May-25 08:00N 47°36' W 002°51'0 0.0
2017-May-25 07:30N 47°36' W 002°51'0 0.0
2017-May-25 07:00N 47°36' W 002°51'0 0.0
2017-May-25 06:30N 47°36' W 002°51'0 0.0
2017-May-25 05:59N 47°36' W 002°51'0 0.0
2017-May-25 05:30N 47°36' W 002°51'0 0.0
2017-May-25 05:00N 47°36' W 002°51'0 0.0
2017-May-25 04:29N 47°36' W 002°51'0 0.0
2017-May-25 04:00N 47°36' W 002°51'0 0.0
2017-May-25 03:29N 47°36' W 002°51'0 0.0
2017-May-25 02:59N 47°36' W 002°51'0 0.0
2017-May-25 02:29N 47°36' W 002°51'0 0.0
2017-May-25 01:59N 47°36' W 002°51'0 0.0
2017-May-25 01:29N 47°36' W 002°51'0 0.0
2017-May-25 00:59N 47°36' W 002°51'0 0.0
2017-May-25 00:29N 47°36' W 002°51'0 0.0
2017-May-24 23:59N 47°36' W 002°51'0 0.1
2017-May-24 23:29N 47°36' W 002°51'0 0.0
2017-May-24 22:59N 47°36' W 002°51'0 0.0
2017-May-24 22:29N 47°36' W 002°51'0 0.0
2017-May-24 21:59N 47°36' W 002°51'0 0.0
2017-May-24 21:29N 47°36' W 002°51'0 0.0
2017-May-24 21:00N 47°36' W 002°51'0 0.0
2017-May-24 20:30N 47°36' W 002°51'0 0.0
2017-May-24 20:00N 47°36' W 002°51'0 0.0
2017-May-24 19:30N 47°36' W 002°51'0 0.0
2017-May-24 18:59N 47°36' W 002°51'0 0.0
2017-May-24 18:30N 47°36' W 002°51'0 0.0
2017-May-24 18:00N 47°36' W 002°51'0 0.0
2017-May-24 17:30N 47°36' W 002°51'0 0.0
2017-May-24 16:59N 47°36' W 002°51'0 0.0
2017-May-24 16:29N 47°36' W 002°51'0 0.0
2017-May-24 15:59N 47°36' W 002°51'0 0.0
2017-May-24 15:29N 47°36' W 002°51'0 0.0
2017-May-24 15:00N 47°36' W 002°51'0 0.0
2017-May-24 14:29N 47°36' W 002°51'1 1.4
2017-May-24 13:31N 47°35' W 002°52'4 7.3
2017-May-24 13:00N 47°32' W 002°55'2 3.1
2017-May-24 12:30N 47°31' W 002°56'2 3.3
2017-May-24 12:00N 47°29' W 002°56'2 4.8
2017-May-24 11:30N 47°27' W 002°57'0 0.6
2017-May-24 11:00N 47°27' W 002°56'2 3.8
2017-May-24 10:30N 47°29' W 002°56'2 4.2
2017-May-24 10:00N 47°30' W 002°54'2 3.5
2017-May-24 09:30N 47°32' W 002°55'4 7.3
2017-May-24 09:00N 47°35' W 002°52'2 2.8
2017-May-24 08:28N 47°36' W 002°51'0 0.0
2017-May-24 07:58N 47°36' W 002°51'0 0.0
2017-May-24 07:28N 47°36' W 002°51'0 0.0
2017-May-24 06:58N 47°36' W 002°51'0 0.0
2017-May-24 06:28N 47°36' W 002°51'0 0.0
2017-May-24 05:58N 47°36' W 002°51'0 0.0
2017-May-24 05:28N 47°36' W 002°51'0 0.0
2017-May-24 04:58N 47°36' W 002°51'0 0.0
2017-May-24 04:28N 47°36' W 002°51'0 0.0
2017-May-24 03:58N 47°36' W 002°51'0 0.0
2017-May-24 03:28N 47°36' W 002°51'0 0.0
2017-May-24 02:58N 47°36' W 002°51'0 0.1
2017-May-24 02:28N 47°36' W 002°51'0 0.0
2017-May-24 01:58N 47°36' W 002°51'0 0.0
2017-May-24 01:28N 47°36' W 002°51'0 0.0
2017-May-24 00:58N 47°36' W 002°51'0 0.0
2017-May-24 00:28N 47°36' W 002°51'0 0.0
2017-May-23 23:58N 47°36' W 002°51'0 0.0
2017-May-23 23:28N 47°36' W 002°51'0 0.0
2017-May-23 22:58N 47°36' W 002°51'0 0.1
2017-May-23 22:28N 47°36' W 002°51'0 0.0
2017-May-23 21:58N 47°36' W 002°51'0 0.0
2017-May-23 21:28N 47°36' W 002°51'0 0.0
2017-May-23 20:58N 47°36' W 002°51'0 0.0
2017-May-23 20:28N 47°36' W 002°51'0 0.0
2017-May-23 19:58N 47°36' W 002°51'0 0.0
2017-May-23 19:28N 47°36' W 002°51'0 0.0
2017-May-23 18:58N 47°36' W 002°51'0 0.0
2017-May-23 18:28N 47°36' W 002°51'0 0.0
2017-May-23 17:58N 47°36' W 002°51'0 0.0
2017-May-23 17:28N 47°36' W 002°51'0 0.0
2017-May-23 16:58N 47°36' W 002°51'0 0.0
2017-May-23 16:28N 47°36' W 002°51'0 0.0
2017-May-23 15:58N 47°36' W 002°51'0 0.0
2017-May-23 15:28N 47°36' W 002°51'0 0.0
2017-May-23 14:58N 47°36' W 002°51'0 0.0
2017-May-23 14:28N 47°36' W 002°51'0 0.0
2017-May-23 13:28N 47°36' W 002°51'0 0.0
2017-May-23 12:58N 47°36' W 002°51'0 0.0
2017-May-23 12:28N 47°36' W 002°51'0 0.0
2017-May-23 11:58N 47°36' W 002°51'0 0.0
2017-May-23 11:28N 47°36' W 002°51'0 0.0
2017-May-23 10:58N 47°36' W 002°51'0 0.0
2017-May-23 10:28N 47°36' W 002°51'0 0.0
2017-May-23 09:58N 47°36' W 002°51'0 0.0
2017-May-23 09:28N 47°36' W 002°51'0 0.0
2017-May-23 08:58N 47°36' W 002°51'0 0.0
2017-May-23 08:28N 47°36' W 002°51'0 0.0
2017-May-23 07:58N 47°36' W 002°51'0 0.0
2017-May-23 07:28N 47°36' W 002°51'0 0.0
2017-May-23 06:58N 47°36' W 002°51'0 0.0
2017-May-23 06:28N 47°36' W 002°51'0 0.0
2017-May-23 05:58N 47°36' W 002°51'0 0.0
2017-May-23 05:28N 47°36' W 002°51'0 0.0
2017-May-23 04:58N 47°36' W 002°51'0 0.0
2017-May-23 04:28N 47°36' W 002°51'0 0.0
2017-May-23 03:58N 47°36' W 002°51'0 0.0
2017-May-23 03:28N 47°36' W 002°51'0 0.0
2017-May-23 02:58N 47°36' W 002°51'0 0.0
2017-May-23 02:28N 47°36' W 002°51'0 0.0
2017-May-23 01:58N 47°36' W 002°51'0 0.0
2017-May-23 01:28N 47°36' W 002°51'0 0.0
2017-May-23 00:58N 47°36' W 002°51'0 0.0
2017-May-23 00:28N 47°36' W 002°51'0 0.0
2017-May-22 23:58N 47°36' W 002°51'0 0.0
2017-May-22 23:28N 47°36' W 002°51'0 0.0
2017-May-22 22:58N 47°36' W 002°51'0 0.0
2017-May-22 22:28N 47°36' W 002°51'0 0.0
2017-May-22 21:58N 47°36' W 002°51'0 0.0
2017-May-22 21:28N 47°36' W 002°51'0 0.0
2017-May-22 20:58N 47°36' W 002°51'0 0.0
2017-May-22 20:28N 47°36' W 002°51'0 0.0
2017-May-22 19:58N 47°36' W 002°51'0 0.0
2017-May-22 19:28N 47°36' W 002°51'0 0.0
2017-May-22 18:58N 47°36' W 002°51'0 0.0
2017-May-22 18:28N 47°36' W 002°51'0 0.0
2017-May-22 17:58N 47°36' W 002°51'0 0.0
2017-May-22 17:28N 47°36' W 002°51'0 0.0
2017-May-22 16:58N 47°36' W 002°51'0 0.0
2017-May-22 16:28N 47°36' W 002°51'0 0.0
2017-May-22 15:58N 47°36' W 002°51'0 0.0
2017-May-22 15:28N 47°36' W 002°51'0 0.0
2017-May-22 15:00N 47°36' W 002°51'0 0.0
2017-May-22 14:00N 47°36' W 002°51'0 0.5
2017-May-22 13:31N 47°36' W 002°51'3 5.0
2017-May-22 13:00N 47°34' W 002°54'2 4.4
2017-May-22 12:30N 47°32' W 002°55'1 2.7
2017-May-22 12:00N 47°31' W 002°57'1 2.2
2017-May-22 11:30N 47°31' W 002°58'1 1.2
2017-May-22 11:00N 47°31' W 002°57'1 1.5
2017-May-22 10:30N 47°31' W 002°56'1 2.0
2017-May-22 10:00N 47°32' W 002°55'2 4.2
2017-May-22 09:30N 47°34' W 002°55'3 5.2
2017-May-22 09:00N 47°36' W 002°52'1 1.7
2017-May-22 08:30N 47°36' W 002°51'0 0.0
2017-May-22 08:00N 47°36' W 002°51'0 0.0
2017-May-22 07:30N 47°36' W 002°51'0 0.0
2017-May-22 06:57N 47°36' W 002°51'0 0.0
2017-May-22 06:30N 47°36' W 002°51'0 0.0
2017-May-22 06:00N 47°36' W 002°51'0 0.0
2017-May-22 05:30N 47°36' W 002°51'0 0.0
2017-May-22 05:00N 47°36' W 002°51'0 0.0
2017-May-22 04:30N 47°36' W 002°51'0 0.0
2017-May-22 04:00N 47°36' W 002°51'0 0.0
2017-May-22 03:30N 47°36' W 002°51'0 0.0
2017-May-22 03:00N 47°36' W 002°51'0 0.0
2017-May-22 02:30N 47°36' W 002°51'0 0.0
2017-May-22 02:00N 47°36' W 002°51'0 0.0
2017-May-22 01:30N 47°36' W 002°51'0 0.0
2017-May-22 01:00N 47°36' W 002°51'0 0.0
2017-May-22 00:30N 47°36' W 002°51'0 0.0
2017-May-22 00:00N 47°36' W 002°51'0 0.0
2017-May-21 23:30N 47°36' W 002°51'0 0.0
2017-May-21 23:00N 47°36' W 002°51'0 0.0
2017-May-21 22:30N 47°36' W 002°51'0 0.0
2017-May-21 22:00N 47°36' W 002°51'0 0.0
2017-May-21 21:30N 47°36' W 002°51'0 0.0
2017-May-21 21:00N 47°36' W 002°51'0 0.1
2017-May-21 20:30N 47°36' W 002°51'2 4.2
2017-May-21 20:00N 47°35' W 002°53'2 4.3
2017-May-21 19:30N 47°33' W 002°55'3 5.5
2017-May-21 19:00N 47°31' W 002°57'3 6.0
2017-May-21 18:30N 47°29' W 003°00'1 1.7
2017-May-21 18:00N 47°29' W 002°60'1 2.8
2017-May-21 17:30N 47°31' W 002°59'1 1.3
2017-May-21 16:58N 47°31' W 002°59'1 2.5
2017-May-21 16:28N 47°31' W 003°01'1 1.3
2017-May-21 15:58N 47°31' W 003°01'1 2.3
2017-May-21 15:28N 47°32' W 003°00'1 2.0
2017-May-21 15:00N 47°32' W 003°01'2 2.0
2017-May-21 13:59N 47°30' W 003°03'1 2.1
2017-May-21 13:30N 47°29' W 003°04'1 1.3
2017-May-21 12:58N 47°30' W 003°03'1 2.3
2017-May-21 12:28N 47°31' W 003°03'1 2.9
2017-May-21 12:00N 47°32' W 003°01'0 0.9
2017-May-21 11:30N 47°32' W 003°02'2 4.8
2017-May-21 11:00N 47°30' W 003°03'2 3.2
2017-May-21 10:31N 47°29' W 003°06'0 0.7
2017-May-21 09:58N 47°29' W 003°06'0 0.0
2017-May-21 09:28N 47°29' W 003°06'0 0.0
2017-May-21 08:58N 47°29' W 003°06'0 0.0
2017-May-21 08:31N 47°29' W 003°06'0 0.0
2017-May-21 07:58N 47°29' W 003°06'0 0.0
2017-May-21 07:31N 47°29' W 003°06'0 0.0
2017-May-21 06:55N 47°29' W 003°06'0 0.0
2017-May-21 06:28N 47°29' W 003°06'0 0.0
2017-May-21 05:58N 47°29' W 003°06'0 0.0
2017-May-21 05:28N 47°29' W 003°06'0 0.0
2017-May-21 04:58N 47°29' W 003°06'0 0.0
2017-May-21 04:31N 47°29' W 003°06'0 0.0
2017-May-21 04:01N 47°29' W 003°06'0 0.0
2017-May-21 03:28N 47°29' W 003°06'0 0.0
2017-May-21 03:01N 47°29' W 003°06'0 0.0
2017-May-21 02:28N 47°29' W 003°06'0 0.0
2017-May-21 02:01N 47°29' W 003°06'0 0.0
2017-May-21 01:28N 47°29' W 003°06'0 0.0
2017-May-21 01:01N 47°29' W 003°06'0 0.0
2017-May-21 00:28N 47°29' W 003°06'0 0.0
2017-May-20 23:58N 47°29' W 003°06'0 0.0
2017-May-20 23:31N 47°29' W 003°06'0 0.0
2017-May-20 23:01N 47°29' W 003°06'0 0.0
2017-May-20 22:28N 47°29' W 003°06'0 0.0
2017-May-20 21:58N 47°29' W 003°06'0 0.0
2017-May-20 21:28N 47°29' W 003°06'0 0.0
2017-May-20 20:58N 47°29' W 003°06'0 0.0
2017-May-20 20:30N 47°29' W 003°06'0 0.0
2017-May-20 20:00N 47°29' W 003°06'0 0.0
2017-May-20 19:30N 47°29' W 003°06'0 0.0
2017-May-20 19:01N 47°29' W 003°06'0 0.0
2017-May-20 18:31N 47°29' W 003°06'0 0.0
2017-May-20 18:01N 47°29' W 003°06'0 0.0
2017-May-20 17:31N 47°29' W 003°06'0 0.0
2017-May-20 16:58N 47°29' W 003°06'0 0.0
2017-May-20 16:28N 47°29' W 003°06'0 0.0
2017-May-20 15:58N 47°29' W 003°06'0 0.0
2017-May-20 15:31N 47°29' W 003°06'0 0.0
2017-May-20 15:01N 47°29' W 003°06'0 0.0
2017-May-20 14:28N 47°29' W 003°06'0 0.0
2017-May-20 13:31N 47°29' W 003°06'0 0.0
2017-May-20 12:58N 47°29' W 003°06'0 0.0
2017-May-20 12:25N 47°29' W 003°06'0 0.0
2017-May-20 11:58N 47°29' W 003°06'0 0.0
2017-May-20 11:31N 47°29' W 003°06'0 0.0
2017-May-20 10:58N 47°29' W 003°06'0 0.0
2017-May-20 10:31N 47°29' W 003°06'0 0.0
2017-May-20 10:01N 47°29' W 003°06'0 0.0
2017-May-20 09:31N 47°29' W 003°06'1 1.1
2017-May-20 09:00N 47°30' W 003°05'0 0.5
2017-May-20 08:30N 47°30' W 003°06'0 0.5
2017-May-20 08:00N 47°29' W 003°06'0 0.0
2017-May-20 07:30N 47°29' W 003°06'0 0.0
2017-May-20 07:00N 47°29' W 003°06'0 0.0
2017-May-20 06:30N 47°29' W 003°06'0 0.1
2017-May-20 06:00N 47°29' W 003°06'0 0.0
2017-May-20 05:30N 47°29' W 003°06'0 0.1
2017-May-20 05:00N 47°29' W 003°06'0 0.2
2017-May-20 04:30N 47°29' W 003°06'0 0.1
2017-May-20 04:00N 47°29' W 003°06'0 0.0
2017-May-20 03:30N 47°29' W 003°06'0 0.1
2017-May-20 03:00N 47°29' W 003°06'0 0.0
2017-May-20 02:30N 47°29' W 003°06'0 0.0
2017-May-20 02:00N 47°29' W 003°06'0 0.0
2017-May-20 01:30N 47°29' W 003°06'0 0.0
2017-May-20 01:00N 47°29' W 003°06'0 0.0
2017-May-20 00:30N 47°29' W 003°06'0 0.0
2017-May-20 00:00N 47°29' W 003°06'0 0.0
2017-May-19 23:30N 47°29' W 003°06'0 0.0
2017-May-19 23:00N 47°29' W 003°06'0 0.0
2017-May-19 22:30N 47°29' W 003°06'0 0.0
2017-May-19 22:00N 47°29' W 003°06'0 0.0
2017-May-19 21:30N 47°29' W 003°06'0 0.1
2017-May-19 21:00N 47°29' W 003°06'1 2.9
2017-May-19 20:30N 47°30' W 003°04'2 4.3
2017-May-19 20:01N 47°31' W 003°01'0 0.7
2017-May-19 19:30N 47°31' W 003°01'1 1.1
2017-May-19 19:00N 47°32' W 003°00'3 5.6
2017-May-19 18:30N 47°29' W 003°01'4 7.2
2017-May-19 18:01N 47°26' W 003°04'3 6.0
2017-May-19 17:30N 47°27' W 003°08'3 6.9
2017-May-19 17:00N 47°29' W 003°13'3 6.4
2017-May-19 16:30N 47°30' W 003°17'3 6.1
2017-May-19 16:01N 47°32' W 003°21'3 6.0
2017-May-19 15:31N 47°33' W 003°25'3 6.6
2017-May-19 15:00N 47°35' W 003°29'6 6.3
2017-May-19 14:00N 47°38' W 003°37'3 6.4
2017-May-19 13:30N 47°40' W 003°41'3 5.0
2017-May-19 13:00N 47°41' W 003°44'1 1.9
2017-May-19 12:30N 47°42' W 003°45'2 3.3
2017-May-19 12:00N 47°43' W 003°47'2 3.3
2017-May-19 11:30N 47°44' W 003°49'2 3.2
2017-May-19 11:00N 47°45' W 003°51'  
Track history (hours):
 
Tides and Currents Weather Stations Pressure Air Temp Water Temp Dewpoint Dewpoint Depression Visibility Wind Speed Wind Dir Waves Ship Positions

Shtandart

Re-creation of early 1700's Russian naval frigate.

Last reported at 2017-May-29 10:59 UTC. Time now 2017-May-29 11:26 UTC.
Position N 48°23' W 004°29'.

Length 34 m; draft 3 m.

Type: Sailing vessel. MMSI: 273452840.

Date/timePositionNaut miles runAvg speedWind from/ knotsBaromVisibWave heightAir tempDewpointWater temp
2017-May-29 10:59N 48°23' W 004°29'0 0.0
2017-May-29 10:29N 48°23' W 004°29'0 0.0
2017-May-29 09:59N 48°23' W 004°29'0 0.0
2017-May-29 09:29N 48°23' W 004°29'0 0.0
2017-May-29 08:59N 48°23' W 004°29'0 0.0
2017-May-29 08:29N 48°23' W 004°29'0 0.0
2017-May-29 07:59N 48°23' W 004°29'0 0.0
2017-May-29 07:29N 48°23' W 004°29'0 0.0
2017-May-29 07:00N 48°23' W 004°29'0 0.0
2017-May-29 06:29N 48°23' W 004°29'0 0.0
2017-May-29 05:59N 48°23' W 004°29'0 0.0
2017-May-29 05:29N 48°23' W 004°29'0 0.0
2017-May-29 04:59N 48°23' W 004°29'0 0.0
2017-May-29 04:29N 48°23' W 004°29'0 0.0
2017-May-29 03:59N 48°23' W 004°29'0 0.0
2017-May-29 03:29N 48°23' W 004°29'0 0.0
2017-May-29 02:59N 48°23' W 004°29'0 0.0
2017-May-29 02:29N 48°23' W 004°29'0 0.0
2017-May-29 01:59N 48°23' W 004°29'0 0.0
2017-May-29 01:29N 48°23' W 004°29'0 0.0
2017-May-29 00:59N 48°23' W 004°29'0 0.0
2017-May-29 00:29N 48°23' W 004°29'0 0.0
2017-May-28 23:59N 48°23' W 004°29'0 0.0
2017-May-28 23:29N 48°23' W 004°29'0 0.0
2017-May-28 22:59N 48°23' W 004°29'0 0.0
2017-May-28 22:29N 48°23' W 004°29'0 0.0
2017-May-28 21:59N 48°23' W 004°29'0 0.0
2017-May-28 21:29N 48°23' W 004°29'0 0.0
2017-May-28 20:59N 48°23' W 004°29'0 0.0
2017-May-28 20:29N 48°23' W 004°29'0 0.0
2017-May-28 19:59N 48°23' W 004°29'0 0.0
2017-May-28 19:29N 48°23' W 004°29'1 2.0
2017-May-28 19:00N 48°22' W 004°30'3 5.1
2017-May-28 18:30N 48°21' W 004°34'3 5.7
2017-May-28 18:00N 48°19' W 004°37'3 6.4
2017-May-28 17:30N 48°16' W 004°39'3 6.3
2017-May-28 17:00N 48°14' W 004°42'3 6.3
2017-May-28 16:30N 48°11' W 004°45'3 6.6
2017-May-28 16:00N 48°08' W 004°47'3 6.4
2017-May-28 15:31N 48°05' W 004°49'4 8.3
2017-May-28 15:00N 48°02' W 004°46'6 5.6
2017-May-28 14:00N 47°57' W 004°42'2 3.3
2017-May-28 13:30N 47°55' W 004°41'2 3.6
2017-May-28 13:00N 47°54' W 004°40'2 3.0
2017-May-28 12:30N 47°53' W 004°38'1 3.0
2017-May-28 12:00N 47°51' W 004°37'1 2.5
2017-May-28 11:30N 47°50' W 004°36'1 2.1
2017-May-28 11:01N 47°50' W 004°35'10 5.1
2017-May-28 08:58N 47°43' W 004°23'2 1.8
2017-May-28 08:05N 47°43' W 004°21'0 3.3
2017-May-28 07:58N 47°42' W 004°20'2 3.3
2017-May-28 07:30N 47°42' W 004°18'2 4.1
2017-May-28 06:58N 47°42' W 004°15'2 3.6
2017-May-28 06:23N 47°41' W 004°12'1 1.5
2017-May-28 05:58N 47°41' W 004°11'2 3.8
2017-May-28 05:28N 47°40' W 004°08'1 3.2
2017-May-28 05:00N 47°39' W 004°06'3 5.3
2017-May-28 04:30N 47°38' W 004°03'3 5.2
2017-May-28 03:54N 47°37' W 003°58'2 6.0
2017-May-28 03:30N 47°36' W 003°55'3 6.7
2017-May-28 03:00N 47°35' W 003°51'3 6.4
2017-May-28 02:30N 47°33' W 003°46'3 6.5
2017-May-28 02:00N 47°32' W 003°42'3 6.4
2017-May-28 01:30N 47°30' W 003°38'3 7.0
2017-May-28 01:00N 47°29' W 003°33'3 6.9
2017-May-28 00:30N 47°28' W 003°28'3 6.1
2017-May-28 00:00N 47°26' W 003°24'2 4.7
2017-May-27 23:30N 47°25' W 003°21'2 4.0
2017-May-27 23:00N 47°25' W 003°19'2 4.8
2017-May-27 22:30N 47°24' W 003°15'4 7.1
2017-May-27 22:00N 47°23' W 003°10'4 7.6
2017-May-27 21:30N 47°25' W 003°05'4 8.0
2017-May-27 21:00N 47°28' W 003°01'3 6.9
2017-May-27 20:30N 47°30' W 002°57'4 7.4
2017-May-27 20:00N 47°34' W 002°55'4 7.6
2017-May-27 19:30N 47°36' W 002°51'0 0.2
2017-May-27 18:59N 47°36' W 002°51'0 0.0
2017-May-27 18:30N 47°36' W 002°51'0 0.0
2017-May-27 17:59N 47°36' W 002°51'0 0.0
2017-May-27 17:29N 47°36' W 002°51'0 0.0
2017-May-27 16:59N 47°36' W 002°51'0 0.0
2017-May-27 16:29N 47°36' W 002°51'0 0.0
2017-May-27 15:59N 47°36' W 002°51'0 0.0
2017-May-27 15:29N 47°36' W 002°51'0 0.0
2017-May-27 14:59N 47°36' W 002°51'1 2.8
2017-May-27 14:30N 47°35' W 002°52'4 4.2
2017-May-27 13:31N 47°31' W 002°55'2 3.1
2017-May-27 13:00N 47°30' W 002°54'1 2.5
2017-May-27 12:29N 47°29' W 002°53'0 0.9
2017-May-27 11:59N 47°28' W 002°53'1 1.7
2017-May-27 11:29N 47°29' W 002°55'1 1.6
2017-May-27 10:59N 47°29' W 002°56'2 4.3
2017-May-27 10:30N 47°31' W 002°55'4 7.7
2017-May-27 10:00N 47°35' W 002°53'2 4.5
2017-May-27 09:30N 47°36' W 002°51'0 0.0
2017-May-27 09:00N 47°36' W 002°51'0 0.0
2017-May-27 08:29N 47°36' W 002°51'0 0.0
2017-May-27 07:59N 47°36' W 002°51'0 0.0
2017-May-27 07:29N 47°36' W 002°51'0 0.0
2017-May-27 06:59N 47°36' W 002°51'0 0.1
2017-May-27 06:29N 47°36' W 002°51'0 0.0
2017-May-27 05:59N 47°36' W 002°51'0 0.0
2017-May-27 05:29N 47°36' W 002°51'0 0.0
2017-May-27 04:59N 47°36' W 002°51'0 0.0
2017-May-27 04:29N 47°36' W 002°51'0 0.0
2017-May-27 03:59N 47°36' W 002°51'0 0.0
2017-May-27 03:29N 47°36' W 002°51'0 0.0
2017-May-27 02:59N 47°36' W 002°51'0 0.0
2017-May-27 02:29N 47°36' W 002°51'0 0.0
2017-May-27 01:59N 47°36' W 002°51'0 0.0
2017-May-27 01:30N 47°36' W 002°51'0 0.0
2017-May-27 00:59N 47°36' W 002°51'0 0.0
2017-May-27 00:30N 47°36' W 002°51'0 0.0
2017-May-27 00:00N 47°36' W 002°51'0 0.0
2017-May-26 23:30N 47°36' W 002°51'0 0.0
2017-May-26 23:00N 47°36' W 002°51'0 0.0
2017-May-26 22:30N 47°36' W 002°51'0 0.0
2017-May-26 21:59N 47°36' W 002°51'0 0.0
2017-May-26 21:30N 47°36' W 002°51'0 0.0
2017-May-26 20:59N 47°36' W 002°51'0 0.0
2017-May-26 20:30N 47°36' W 002°51'0 0.0
2017-May-26 19:59N 47°36' W 002°51'0 0.0
2017-May-26 19:30N 47°36' W 002°51'0 0.0
2017-May-26 18:59N 47°36' W 002°51'0 0.0
2017-May-26 18:29N 47°36' W 002°51'0 0.0
2017-May-26 17:59N 47°36' W 002°51'0 0.0
2017-May-26 17:29N 47°36' W 002°51'0 0.0
2017-May-26 16:59N 47°36' W 002°51'0 0.0
2017-May-26 16:26N 47°36' W 002°51'0 0.0
2017-May-26 15:59N 47°36' W 002°51'0 0.0
2017-May-26 15:29N 47°36' W 002°51'0 0.0
2017-May-26 15:00N 47°36' W 002°51'3 3.4
2017-May-26 14:00N 47°34' W 002°54'3 6.1
2017-May-26 13:30N 47°31' W 002°57'1 2.9
2017-May-26 13:00N 47°31' W 002°59'1 1.2
2017-May-26 12:28N 47°30' W 002°58'1 1.1
2017-May-26 11:58N 47°30' W 002°57'1 1.5
2017-May-26 11:28N 47°31' W 002°56'1 2.5
2017-May-26 10:58N 47°32' W 002°55'3 6.6
2017-May-26 10:31N 47°34' W 002°53'3 4.9
2017-May-26 09:59N 47°36' W 002°51'0 0.0
2017-May-26 09:29N 47°36' W 002°51'0 0.0
2017-May-26 08:59N 47°36' W 002°51'0 0.0
2017-May-26 08:29N 47°36' W 002°51'0 0.0
2017-May-26 07:59N 47°36' W 002°51'0 0.0
2017-May-26 07:29N 47°36' W 002°51'0 0.0
2017-May-26 06:59N 47°36' W 002°51'0 0.0
2017-May-26 06:29N 47°36' W 002°51'0 0.0
2017-May-26 05:59N 47°36' W 002°51'0 0.0
2017-May-26 05:29N 47°36' W 002°51'0 0.0
2017-May-26 04:59N 47°36' W 002°51'0 0.0
2017-May-26 04:29N 47°36' W 002°51'0 0.0
2017-May-26 03:59N 47°36' W 002°51'0 0.0
2017-May-26 03:29N 47°36' W 002°51'0 0.0
2017-May-26 02:59N 47°36' W 002°51'0 0.0
2017-May-26 02:29N 47°36' W 002°51'0 0.0
2017-May-26 01:59N 47°36' W 002°51'0 0.0
2017-May-26 01:30N 47°36' W 002°51'0 0.0
2017-May-26 01:00N 47°36' W 002°51'0 0.0
2017-May-26 00:30N 47°36' W 002°51'0 0.0
2017-May-25 23:59N 47°36' W 002°51'0 0.0
2017-May-25 23:29N 47°36' W 002°51'0 0.0
2017-May-25 23:00N 47°36' W 002°51'0 0.0
2017-May-25 22:30N 47°36' W 002°51'0 0.0
2017-May-25 21:59N 47°36' W 002°51'0 0.0
2017-May-25 21:30N 47°36' W 002°51'0 0.0
2017-May-25 21:00N 47°36' W 002°51'0 0.0
2017-May-25 20:30N 47°36' W 002°51'0 0.0
2017-May-25 19:59N 47°36' W 002°51'0 0.0
2017-May-25 19:29N 47°36' W 002°51'0 0.0
2017-May-25 18:59N 47°36' W 002°51'0 0.0
2017-May-25 18:29N 47°36' W 002°51'0 0.0
2017-May-25 17:59N 47°36' W 002°51'0 0.0
2017-May-25 17:29N 47°36' W 002°51'0 0.0
2017-May-25 16:59N 47°36' W 002°51'0 0.0
2017-May-25 16:29N 47°36' W 002°51'0 0.0
2017-May-25 15:59N 47°36' W 002°51'0 0.0
2017-May-25 15:29N 47°36' W 002°51'0 0.0
2017-May-25 14:59N 47°36' W 002°51'0 0.0
2017-May-25 13:59N 47°36' W 002°51'0 0.3
2017-May-25 13:30N 47°36' W 002°51'2 4.8
2017-May-25 13:00N 47°34' W 002°53'3 5.6
2017-May-25 12:30N 47°32' W 002°55'3 5.9
2017-May-25 12:00N 47°29' W 002°55'3 5.1
2017-May-25 11:30N 47°26' W 002°56'2 3.5
2017-May-25 11:00N 47°25' W 002°56'2 3.6
2017-May-25 10:30N 47°27' W 002°56'2 4.5
2017-May-25 10:00N 47°29' W 002°55'2 4.9
2017-May-25 09:30N 47°31' W 002°55'4 7.8
2017-May-25 09:00N 47°35' W 002°53'2 3.9
2017-May-25 08:30N 47°36' W 002°51'0 0.0
2017-May-25 08:00N 47°36' W 002°51'0 0.0
2017-May-25 07:30N 47°36' W 002°51'0 0.0
2017-May-25 07:00N 47°36' W 002°51'0 0.0
2017-May-25 06:30N 47°36' W 002°51'0 0.0
2017-May-25 05:59N 47°36' W 002°51'0 0.0
2017-May-25 05:30N 47°36' W 002°51'0 0.0
2017-May-25 05:00N 47°36' W 002°51'0 0.0
2017-May-25 04:29N 47°36' W 002°51'0 0.0
2017-May-25 04:00N 47°36' W 002°51'0 0.0
2017-May-25 03:29N 47°36' W 002°51'0 0.0
2017-May-25 02:59N 47°36' W 002°51'0 0.0
2017-May-25 02:29N 47°36' W 002°51'0 0.0
2017-May-25 01:59N 47°36' W 002°51'0 0.0
2017-May-25 01:29N 47°36' W 002°51'0 0.0
2017-May-25 00:59N 47°36' W 002°51'0 0.0
2017-May-25 00:29N 47°36' W 002°51'0 0.0
2017-May-24 23:59N 47°36' W 002°51'0 0.1
2017-May-24 23:29N 47°36' W 002°51'0 0.0
2017-May-24 22:59N 47°36' W 002°51'0 0.0
2017-May-24 22:29N 47°36' W 002°51'0 0.0
2017-May-24 21:59N 47°36' W 002°51'0 0.0
2017-May-24 21:29N 47°36' W 002°51'0 0.0
2017-May-24 21:00N 47°36' W 002°51'0 0.0
2017-May-24 20:30N 47°36' W 002°51'0 0.0
2017-May-24 20:00N 47°36' W 002°51'0 0.0
2017-May-24 19:30N 47°36' W 002°51'0 0.0
2017-May-24 18:59N 47°36' W 002°51'0 0.0
2017-May-24 18:30N 47°36' W 002°51'0 0.0
2017-May-24 18:00N 47°36' W 002°51'0 0.0
2017-May-24 17:30N 47°36' W 002°51'0 0.0
2017-May-24 16:59N 47°36' W 002°51'0 0.0
2017-May-24 16:29N 47°36' W 002°51'0 0.0
2017-May-24 15:59N 47°36' W 002°51'0 0.0
2017-May-24 15:29N 47°36' W 002°51'0 0.0
2017-May-24 15:00N 47°36' W 002°51'0 0.0
2017-May-24 14:29N 47°36' W 002°51'1 1.4
2017-May-24 13:31N 47°35' W 002°52'4 7.3
2017-May-24 13:00N 47°32' W 002°55'2 3.1
2017-May-24 12:30N 47°31' W 002°56'2 3.3
2017-May-24 12:00N 47°29' W 002°56'2 4.8
2017-May-24 11:30N 47°27' W 002°57'0 0.6
2017-May-24 11:00N 47°27' W 002°56'2 3.8
2017-May-24 10:30N 47°29' W 002°56'2 4.2
2017-May-24 10:00N 47°30' W 002°54'2 3.5
2017-May-24 09:30N 47°32' W 002°55'4 7.3
2017-May-24 09:00N 47°35' W 002°52'2 2.8
2017-May-24 08:28N 47°36' W 002°51'0 0.0
2017-May-24 07:58N 47°36' W 002°51'0 0.0
2017-May-24 07:28N 47°36' W 002°51'0 0.0
2017-May-24 06:58N 47°36' W 002°51'0 0.0
2017-May-24 06:28N 47°36' W 002°51'0 0.0
2017-May-24 05:58N 47°36' W 002°51'0 0.0
2017-May-24 05:28N 47°36' W 002°51'0 0.0
2017-May-24 04:58N 47°36' W 002°51'0 0.0
2017-May-24 04:28N 47°36' W 002°51'0 0.0
2017-May-24 03:58N 47°36' W 002°51'0 0.0
2017-May-24 03:28N 47°36' W 002°51'0 0.0
2017-May-24 02:58N 47°36' W 002°51'0 0.1
2017-May-24 02:28N 47°36' W 002°51'0 0.0
2017-May-24 01:58N 47°36' W 002°51'0 0.0
2017-May-24 01:28N 47°36' W 002°51'0 0.0
2017-May-24 00:58N 47°36' W 002°51'0 0.0
2017-May-24 00:28N 47°36' W 002°51'0 0.0
2017-May-23 23:58N 47°36' W 002°51'0 0.0
2017-May-23 23:28N 47°36' W 002°51'0 0.0
2017-May-23 22:58N 47°36' W 002°51'0 0.1
2017-May-23 22:28N 47°36' W 002°51'0 0.0
2017-May-23 21:58N 47°36' W 002°51'0 0.0
2017-May-23 21:28N 47°36' W 002°51'0 0.0
2017-May-23 20:58N 47°36' W 002°51'0 0.0
2017-May-23 20:28N 47°36' W 002°51'0 0.0
2017-May-23 19:58N 47°36' W 002°51'0 0.0
2017-May-23 19:28N 47°36' W 002°51'0 0.0
2017-May-23 18:58N 47°36' W 002°51'0 0.0
2017-May-23 18:28N 47°36' W 002°51'0 0.0
2017-May-23 17:58N 47°36' W 002°51'0 0.0
2017-May-23 17:28N 47°36' W 002°51'0 0.0
2017-May-23 16:58N 47°36' W 002°51'0 0.0
2017-May-23 16:28N 47°36' W 002°51'0 0.0
2017-May-23 15:58N 47°36' W 002°51'0 0.0
2017-May-23 15:28N 47°36' W 002°51'0 0.0
2017-May-23 14:58N 47°36' W 002°51'0 0.0
2017-May-23 14:28N 47°36' W 002°51'0 0.0
2017-May-23 13:28N 47°36' W 002°51'0 0.0
2017-May-23 12:58N 47°36' W 002°51'0 0.0
2017-May-23 12:28N 47°36' W 002°51'0 0.0
2017-May-23 11:58N 47°36' W 002°51'0 0.0
2017-May-23 11:28N 47°36' W 002°51'0 0.0
2017-May-23 10:58N 47°36' W 002°51'0 0.0
2017-May-23 10:28N 47°36' W 002°51'0 0.0
2017-May-23 09:58N 47°36' W 002°51'0 0.0
2017-May-23 09:28N 47°36' W 002°51'0 0.0
2017-May-23 08:58N 47°36' W 002°51'0 0.0
2017-May-23 08:28N 47°36' W 002°51'0 0.0
2017-May-23 07:58N 47°36' W 002°51'0 0.0
2017-May-23 07:28N 47°36' W 002°51'0 0.0
2017-May-23 06:58N 47°36' W 002°51'0 0.0
2017-May-23 06:28N 47°36' W 002°51'0 0.0
2017-May-23 05:58N 47°36' W 002°51'0 0.0
2017-May-23 05:28N 47°36' W 002°51'0 0.0
2017-May-23 04:58N 47°36' W 002°51'0 0.0
2017-May-23 04:28N 47°36' W 002°51'0 0.0
2017-May-23 03:58N 47°36' W 002°51'0 0.0
2017-May-23 03:28N 47°36' W 002°51'0 0.0
2017-May-23 02:58N 47°36' W 002°51'0 0.0
2017-May-23 02:28N 47°36' W 002°51'0 0.0
2017-May-23 01:58N 47°36' W 002°51'0 0.0
2017-May-23 01:28N 47°36' W 002°51'0 0.0
2017-May-23 00:58N 47°36' W 002°51'0 0.0
2017-May-23 00:28N 47°36' W 002°51'0 0.0
2017-May-22 23:58N 47°36' W 002°51'0 0.0
2017-May-22 23:28N 47°36' W 002°51'0 0.0
2017-May-22 22:58N 47°36' W 002°51'0 0.0
2017-May-22 22:28N 47°36' W 002°51'0 0.0
2017-May-22 21:58N 47°36' W 002°51'0 0.0
2017-May-22 21:28N 47°36' W 002°51'0 0.0
2017-May-22 20:58N 47°36' W 002°51'0 0.0
2017-May-22 20:28N 47°36' W 002°51'0 0.0
2017-May-22 19:58N 47°36' W 002°51'0 0.0
2017-May-22 19:28N 47°36' W 002°51'0 0.0
2017-May-22 18:58N 47°36' W 002°51'0 0.0
2017-May-22 18:28N 47°36' W 002°51'0 0.0
2017-May-22 17:58N 47°36' W 002°51'0 0.0
2017-May-22 17:28N 47°36' W 002°51'0 0.0
2017-May-22 16:58N 47°36' W 002°51'0 0.0
2017-May-22 16:28N 47°36' W 002°51'0 0.0
2017-May-22 15:58N 47°36' W 002°51'0 0.0
2017-May-22 15:28N 47°36' W 002°51'0 0.0
2017-May-22 15:00N 47°36' W 002°51'0 0.0
2017-May-22 14:00N 47°36' W 002°51'0 0.5
2017-May-22 13:31N 47°36' W 002°51'3 5.0
2017-May-22 13:00N 47°34' W 002°54'2 4.4
2017-May-22 12:30N 47°32' W 002°55'1 2.7
2017-May-22 12:00N 47°31' W 002°57'1 2.2
2017-May-22 11:30N 47°31' W 002°58'1 1.2
2017-May-22 11:00N 47°31' W 002°57'1 1.5
2017-May-22 10:30N 47°31' W 002°56'1 2.0
2017-May-22 10:00N 47°32' W 002°55'2 4.2
2017-May-22 09:30N 47°34' W 002°55'3 5.2
2017-May-22 09:00N 47°36' W 002°52'1 1.7
2017-May-22 08:30N 47°36' W 002°51'0 0.0
2017-May-22 08:00N 47°36' W 002°51'0 0.0
2017-May-22 07:30N 47°36' W 002°51'0 0.0
2017-May-22 06:57N 47°36' W 002°51'0 0.0
2017-May-22 06:30N 47°36' W 002°51'0 0.0
2017-May-22 06:00N 47°36' W 002°51'0 0.0
2017-May-22 05:30N 47°36' W 002°51'0 0.0
2017-May-22 05:00N 47°36' W 002°51'0 0.0
2017-May-22 04:30N 47°36' W 002°51'0 0.0
2017-May-22 04:00N 47°36' W 002°51'0 0.0
2017-May-22 03:30N 47°36' W 002°51'0 0.0
2017-May-22 03:00N 47°36' W 002°51'0 0.0
2017-May-22 02:30N 47°36' W 002°51'0 0.0
2017-May-22 02:00N 47°36' W 002°51'0 0.0
2017-May-22 01:30N 47°36' W 002°51'0 0.0
2017-May-22 01:00N 47°36' W 002°51'0 0.0
2017-May-22 00:30N 47°36' W 002°51'0 0.0
2017-May-22 00:00N 47°36' W 002°51'0 0.0
2017-May-21 23:30N 47°36' W 002°51'0 0.0
2017-May-21 23:00N 47°36' W 002°51'0 0.0
2017-May-21 22:30N 47°36' W 002°51'0 0.0
2017-May-21 22:00N 47°36' W 002°51'0 0.0
2017-May-21 21:30N 47°36' W 002°51'0 0.0
2017-May-21 21:00N 47°36' W 002°51'0 0.1
2017-May-21 20:30N 47°36' W 002°51'2 4.2
2017-May-21 20:00N 47°35' W 002°53'2 4.3
2017-May-21 19:30N 47°33' W 002°55'3 5.5
2017-May-21 19:00N 47°31' W 002°57'3 6.0
2017-May-21 18:30N 47°29' W 003°00'1 1.7
2017-May-21 18:00N 47°29' W 002°60'1 2.8
2017-May-21 17:30N 47°31' W 002°59'1 1.3
2017-May-21 16:58N 47°31' W 002°59'1 2.5
2017-May-21 16:28N 47°31' W 003°01'1 1.3
2017-May-21 15:58N 47°31' W 003°01'1 2.3
2017-May-21 15:28N 47°32' W 003°00'1 2.0
2017-May-21 15:00N 47°32' W 003°01'2 2.0
2017-May-21 13:59N 47°30' W 003°03'1 2.1
2017-May-21 13:30N 47°29' W 003°04'1 1.3
2017-May-21 12:58N 47°30' W 003°03'1 2.3
2017-May-21 12:28N 47°31' W 003°03'1 2.9
2017-May-21 12:00N 47°32' W 003°01'0 0.9
2017-May-21 11:30N 47°32' W 003°02'2 4.8
2017-May-21 11:00N 47°30' W 003°03'2 3.2
2017-May-21 10:31N 47°29' W 003°06'0 0.7
2017-May-21 09:58N 47°29' W 003°06'0 0.0
2017-May-21 09:28N 47°29' W 003°06'0 0.0
2017-May-21 08:58N 47°29' W 003°06'0 0.0
2017-May-21 08:31N 47°29' W 003°06'0 0.0
2017-May-21 07:58N 47°29' W 003°06'0 0.0
2017-May-21 07:31N 47°29' W 003°06'0 0.0
2017-May-21 06:55N 47°29' W 003°06'0 0.0
2017-May-21 06:28N 47°29' W 003°06'0 0.0
2017-May-21 05:58N 47°29' W 003°06'0 0.0
2017-May-21 05:28N 47°29' W 003°06'0 0.0
2017-May-21 04:58N 47°29' W 003°06'0 0.0
2017-May-21 04:31N 47°29' W 003°06'0 0.0
2017-May-21 04:01N 47°29' W 003°06'0 0.0
2017-May-21 03:28N 47°29' W 003°06'0 0.0
2017-May-21 03:01N 47°29' W 003°06'0 0.0
2017-May-21 02:28N 47°29' W 003°06'0 0.0
2017-May-21 02:01N 47°29' W 003°06'0 0.0
2017-May-21 01:28N 47°29' W 003°06'0 0.0
2017-May-21 01:01N 47°29' W 003°06'0 0.0
2017-May-21 00:28N 47°29' W 003°06'0 0.0
2017-May-20 23:58N 47°29' W 003°06'0 0.0
2017-May-20 23:31N 47°29' W 003°06'0 0.0
2017-May-20 23:01N 47°29' W 003°06'0 0.0
2017-May-20 22:28N 47°29' W 003°06'0 0.0
2017-May-20 21:58N 47°29' W 003°06'0 0.0
2017-May-20 21:28N 47°29' W 003°06'0 0.0
2017-May-20 20:58N 47°29' W 003°06'0 0.0
2017-May-20 20:30N 47°29' W 003°06'0 0.0
2017-May-20 20:00N 47°29' W 003°06'0 0.0
2017-May-20 19:30N 47°29' W 003°06'0 0.0
2017-May-20 19:01N 47°29' W 003°06'0 0.0
2017-May-20 18:31N 47°29' W 003°06'0 0.0
2017-May-20 18:01N 47°29' W 003°06'0 0.0
2017-May-20 17:31N 47°29' W 003°06'0 0.0
2017-May-20 16:58N 47°29' W 003°06'0 0.0
2017-May-20 16:28N 47°29' W 003°06'0 0.0
2017-May-20 15:58N 47°29' W 003°06'0 0.0
2017-May-20 15:31N 47°29' W 003°06'0 0.0
2017-May-20 15:01N 47°29' W 003°06'0 0.0
2017-May-20 14:28N 47°29' W 003°06'0 0.0
2017-May-20 13:31N 47°29' W 003°06'0 0.0
2017-May-20 12:58N 47°29' W 003°06'0 0.0
2017-May-20 12:25N 47°29' W 003°06'0 0.0
2017-May-20 11:58N 47°29' W 003°06'0 0.0
2017-May-20 11:31N 47°29' W 003°06'0 0.0
2017-May-20 10:58N 47°29' W 003°06'0 0.0
2017-May-20 10:31N 47°29' W 003°06'0 0.0
2017-May-20 10:01N 47°29' W 003°06'0 0.0
2017-May-20 09:31N 47°29' W 003°06'1 1.1
2017-May-20 09:00N 47°30' W 003°05'0 0.5
2017-May-20 08:30N 47°30' W 003°06'0 0.5
2017-May-20 08:00N 47°29' W 003°06'0 0.0
2017-May-20 07:30N 47°29' W 003°06'0 0.0
2017-May-20 07:00N 47°29' W 003°06'0 0.0
2017-May-20 06:30N 47°29' W 003°06'0 0.1
2017-May-20 06:00N 47°29' W 003°06'0 0.0
2017-May-20 05:30N 47°29' W 003°06'0 0.1
2017-May-20 05:00N 47°29' W 003°06'0 0.2
2017-May-20 04:30N 47°29' W 003°06'0 0.1
2017-May-20 04:00N 47°29' W 003°06'0 0.0
2017-May-20 03:30N 47°29' W 003°06'0 0.1
2017-May-20 03:00N 47°29' W 003°06'0 0.0
2017-May-20 02:30N 47°29' W 003°06'0 0.0
2017-May-20 02:00N 47°29' W 003°06'0 0.0
2017-May-20 01:30N 47°29' W 003°06'0 0.0
2017-May-20 01:00N 47°29' W 003°06'0 0.0
2017-May-20 00:30N 47°29' W 003°06'0 0.0
2017-May-20 00:00N 47°29' W 003°06'0 0.0
2017-May-19 23:30N 47°29' W 003°06'0 0.0
2017-May-19 23:00N 47°29' W 003°06'0 0.0
2017-May-19 22:30N 47°29' W 003°06'0 0.0
2017-May-19 22:00N 47°29' W 003°06'0 0.0
2017-May-19 21:30N 47°29' W 003°06'0 0.1
2017-May-19 21:00N 47°29' W 003°06'1 2.9
2017-May-19 20:30N 47°30' W 003°04'2 4.3
2017-May-19 20:01N 47°31' W 003°01'0 0.7
2017-May-19 19:30N 47°31' W 003°01'1 1.1
2017-May-19 19:00N 47°32' W 003°00'3 5.6
2017-May-19 18:30N 47°29' W 003°01'4 7.2
2017-May-19 18:01N 47°26' W 003°04'3 6.0
2017-May-19 17:30N 47°27' W 003°08'3 6.9
2017-May-19 17:00N 47°29' W 003°13'3 6.4
2017-May-19 16:30N 47°30' W 003°17'3 6.1
2017-May-19 16:01N 47°32' W 003°21'3 6.0
2017-May-19 15:31N 47°33' W 003°25'3 6.6
2017-May-19 15:00N 47°35' W 003°29'6 6.3
2017-May-19 14:00N 47°38' W 003°37'3 6.4
2017-May-19 13:30N 47°40' W 003°41'3 5.0
2017-May-19 13:00N 47°41' W 003°44'1 1.9
2017-May-19 12:30N 47°42' W 003°45'2 3.3
2017-May-19 12:00N 47°43' W 003°47'2 3.3
2017-May-19 11:30N 47°44' W 003°49'2 3.2
2017-May-19 11:00N 47°45' W 003°51'  

Dump ship's entire track history